createdAt,value
2023-08-07T00:00:26.106Z,3.88
2023-08-07T00:02:54.274Z,4.22
2023-08-07T00:05:22.421Z,4.55
2023-08-07T00:07:50.546Z,4.03
2023-08-07T00:10:18.850Z,4.25
2023-08-07T00:12:47.170Z,4.63
2023-08-07T00:15:15.478Z,4.72
2023-08-07T00:17:45.066Z,4.10
2023-08-07T00:20:13.301Z,4.20
2023-08-07T00:22:41.495Z,4.18
2023-08-07T00:25:10.454Z,3.38
2023-08-07T00:27:38.556Z,3.25
2023-08-07T00:30:07.755Z,2.70
2023-08-07T00:32:35.853Z,2.78
2023-08-07T00:35:06.180Z,2.70
2023-08-07T00:37:34.470Z,1.90
2023-08-07T00:40:02.985Z,1.98
2023-08-07T00:42:31.112Z,1.60
2023-08-07T00:44:59.209Z,1.70
2023-08-07T00:47:27.437Z,1.42
2023-08-07T00:49:55.704Z,1.08
2023-08-07T00:52:25.190Z,0.82
2023-08-07T00:54:53.444Z,0.85
2023-08-07T00:57:24.031Z,0.93
2023-08-07T00:59:52.179Z,0.90
2023-08-07T01:02:20.999Z,0.80
2023-08-07T01:04:49.245Z,0.55
2023-08-07T01:07:17.319Z,0.50
2023-08-07T01:09:46.885Z,0.50
2023-08-07T01:12:18.133Z,0.60
2023-08-07T01:14:53.438Z,0.60
2023-08-07T01:17:23.026Z,0.90
2023-08-07T01:19:52.591Z,0.70
2023-08-07T01:22:23.061Z,0.40
2023-08-07T01:24:52.023Z,0.50
2023-08-07T01:27:44.521Z,0.55
2023-08-07T01:30:18.914Z,0.70
2023-08-07T01:32:54.999Z,0.60
2023-08-07T01:35:26.419Z,0.70
2023-08-07T01:37:58.227Z,0.50
2023-08-07T01:40:26.708Z,0.47
2023-08-07T01:42:54.877Z,0.40
2023-08-07T01:45:26.665Z,0.52
2023-08-07T01:47:55.194Z,0.85
2023-08-07T01:50:24.080Z,0.68
2023-08-07T01:52:52.422Z,0.57
2023-08-07T01:55:23.080Z,0.52
2023-08-07T01:57:51.153Z,0.50
2023-08-07T02:00:19.676Z,0.85
2023-08-07T02:02:48.392Z,1.35
2023-08-07T02:05:17.524Z,0.75
2023-08-07T02:07:46.347Z,0.70
2023-08-07T02:10:14.511Z,0.50
2023-08-07T02:12:43.976Z,0.65
2023-08-07T02:15:12.304Z,0.50
2023-08-07T02:17:42.507Z,0.80
2023-08-07T02:20:12.414Z,0.57
2023-08-07T02:22:40.873Z,0.57
2023-08-07T02:25:09.806Z,0.60
2023-08-07T02:27:37.930Z,0.70
2023-08-07T02:30:08.604Z,0.55
2023-08-07T02:32:36.818Z,0.63
2023-08-07T02:35:05.355Z,0.60
2023-08-07T02:37:33.472Z,0.68
2023-08-07T02:40:01.639Z,1.00
2023-08-07T02:42:29.761Z,0.90
2023-08-07T02:44:57.837Z,1.10
2023-08-07T02:47:27.276Z,1.33
2023-08-07T02:49:55.381Z,1.02
2023-08-07T02:52:23.457Z,1.20
2023-08-07T02:54:51.540Z,1.27
2023-08-07T02:57:19.693Z,1.42
2023-08-07T02:59:48.049Z,1.63
2023-08-07T03:02:16.179Z,1.50
2023-08-07T03:04:45.694Z,1.85
2023-08-07T03:07:13.780Z,1.75
2023-08-07T03:09:41.872Z,1.73
2023-08-07T03:12:10.711Z,2.30
2023-08-07T03:14:38.777Z,2.42
2023-08-07T03:17:07.513Z,2.50
2023-08-07T03:19:35.616Z,2.80
2023-08-07T03:22:05.618Z,3.90
2023-08-07T03:24:33.730Z,3.30
2023-08-07T03:27:01.814Z,3.35
2023-08-07T03:29:29.866Z,3.30
2023-08-07T03:31:58.273Z,3.80
2023-08-07T03:34:26.439Z,3.70
2023-08-07T03:36:54.696Z,3.65
2023-08-07T03:39:24.332Z,2.65
2023-08-07T03:41:52.501Z,2.58
2023-08-07T03:44:20.584Z,2.53
2023-08-07T03:46:48.700Z,2.20
2023-08-07T03:49:16.807Z,2.08
2023-08-07T03:51:44.895Z,2.38
2023-08-07T03:54:12.941Z,2.30
2023-08-07T03:56:42.406Z,2.75
2023-08-07T03:59:10.446Z,2.35
2023-08-07T04:01:38.532Z,2.10
2023-08-07T04:04:06.632Z,2.00
2023-08-07T04:06:34.740Z,1.50
2023-08-07T04:09:04.592Z,1.75
2023-08-07T04:11:34.646Z,1.58
2023-08-07T04:14:05.027Z,1.25
2023-08-07T04:16:33.497Z,1.40
2023-08-07T04:19:01.606Z,1.30
2023-08-07T04:21:29.638Z,1.83
2023-08-07T04:23:58.002Z,1.83
2023-08-07T04:26:26.096Z,2.17
2023-08-07T04:28:54.180Z,2.10
2023-08-07T04:31:23.900Z,2.83
2023-08-07T04:33:52.081Z,2.47
2023-08-07T04:36:20.224Z,2.00
2023-08-07T04:38:48.363Z,2.08
2023-08-07T04:41:16.426Z,2.17
2023-08-07T04:43:44.790Z,1.90
2023-08-07T04:46:13.236Z,2.05
2023-08-07T04:48:42.907Z,1.35
2023-08-07T04:51:10.976Z,1.70
2023-08-07T04:53:39.042Z,1.98
2023-08-07T04:56:07.178Z,2.10
2023-08-07T04:58:35.293Z,2.45
2023-08-07T05:01:03.418Z,2.30
2023-08-07T05:03:32.485Z,2.30
2023-08-07T05:06:02.402Z,2.53
2023-08-07T05:08:30.515Z,2.78
2023-08-07T05:10:58.629Z,2.38
2023-08-07T05:13:26.706Z,2.45
2023-08-07T05:15:54.822Z,2.50
2023-08-07T05:18:22.928Z,3.15
2023-08-07T05:20:51.054Z,2.97
2023-08-07T05:23:20.544Z,3.80
2023-08-07T05:25:49.990Z,4.30
2023-08-07T05:28:18.500Z,4.70
2023-08-07T05:30:46.620Z,5.45
2023-08-07T05:33:15.946Z,5.88
2023-08-07T05:35:44.083Z,5.68
2023-08-07T05:38:12.173Z,4.32
2023-08-07T05:40:41.941Z,4.85
2023-08-07T05:43:12.142Z,5.47
2023-08-07T05:45:40.277Z,5.53
2023-08-07T05:48:10.503Z,6.30
2023-08-07T05:50:38.574Z,6.60
2023-08-07T05:53:06.718Z,6.15
2023-08-07T05:55:34.919Z,6.35
2023-08-07T05:58:04.482Z,6.32
2023-08-07T06:00:33.083Z,7.00
2023-08-07T06:03:01.326Z,6.57
2023-08-07T06:05:30.025Z,6.68
2023-08-07T06:07:58.103Z,7.20
2023-08-07T06:10:26.814Z,7.57
2023-08-07T06:12:54.886Z,6.60
2023-08-07T06:15:24.403Z,6.32
2023-08-07T06:17:53.189Z,6.72
2023-08-07T06:20:21.748Z,7.35
2023-08-07T06:22:49.819Z,6.07
2023-08-07T06:25:18.062Z,5.80
2023-08-07T06:27:46.114Z,5.18
2023-08-07T06:30:15.221Z,6.35
2023-08-07T06:32:44.709Z,6.40
2023-08-07T06:35:12.822Z,5.68
2023-08-07T06:37:40.891Z,4.47
2023-08-07T06:40:12.947Z,5.85
2023-08-07T06:42:41.066Z,3.55
2023-08-07T06:45:09.938Z,4.00
2023-08-07T06:47:38.091Z,3.40
2023-08-07T06:50:08.273Z,2.90
2023-08-07T06:52:36.504Z,2.00
2023-08-07T06:55:04.840Z,2.60
2023-08-07T06:57:32.923Z,2.72
2023-08-07T07:00:00.998Z,2.40
2023-08-07T07:02:29.138Z,2.30
2023-08-07T07:04:57.349Z,1.55
2023-08-07T07:07:26.819Z,1.70
2023-08-07T07:09:54.876Z,2.47
2023-08-07T07:12:22.958Z,2.00
2023-08-07T07:14:51.067Z,2.38
2023-08-07T07:17:19.129Z,1.65
2023-08-07T07:19:47.201Z,1.55
2023-08-07T07:22:15.288Z,1.55
2023-08-07T07:24:44.775Z,1.42
2023-08-07T07:27:12.842Z,1.48
2023-08-07T07:29:40.941Z,1.67
2023-08-07T07:32:09.968Z,2.05
2023-08-07T07:34:38.094Z,2.40
2023-08-07T07:37:06.804Z,3.20
2023-08-07T07:39:36.902Z,2.75
2023-08-07T07:42:07.611Z,2.90
2023-08-07T07:44:36.507Z,3.03
2023-08-07T07:47:06.177Z,2.80
2023-08-07T07:49:34.958Z,3.30
2023-08-07T07:52:03.062Z,3.60
2023-08-07T07:54:31.272Z,5.30
2023-08-07T07:56:59.556Z,4.78
2023-08-07T07:59:29.232Z,5.85
2023-08-07T08:01:57.489Z,6.68
2023-08-07T08:04:25.928Z,7.80
2023-08-07T08:06:54.426Z,7.47
2023-08-07T08:09:22.594Z,6.50
2023-08-07T08:11:50.672Z,6.07
2023-08-07T08:14:18.810Z,5.95
2023-08-07T08:16:48.275Z,6.35
2023-08-07T08:19:17.434Z,5.65
2023-08-07T08:21:45.640Z,5.07
2023-08-07T08:24:13.728Z,4.88
2023-08-07T08:26:41.822Z,5.55
2023-08-07T08:29:10.542Z,5.57
2023-08-07T08:31:38.689Z,5.72
2023-08-07T08:34:08.192Z,5.15
2023-08-07T08:36:36.625Z,5.18
2023-08-07T08:39:05.834Z,3.67
2023-08-07T08:41:34.369Z,3.67
2023-08-07T08:44:04.153Z,2.35
2023-08-07T08:46:32.777Z,1.90
2023-08-07T08:49:01.513Z,1.80
2023-08-07T08:51:31.047Z,2.00
2023-08-07T08:53:59.217Z,1.80
2023-08-07T08:56:27.311Z,2.30
2023-08-07T08:58:55.435Z,2.30
2023-08-07T09:01:26.402Z,2.42
2023-08-07T09:03:56.209Z,2.13
2023-08-07T09:06:24.696Z,2.30
2023-08-07T09:08:55.255Z,2.42
2023-08-07T09:11:23.581Z,2.10
2023-08-07T09:13:51.970Z,1.70
2023-08-07T09:16:20.593Z,1.60
2023-08-07T09:18:51.224Z,1.70
2023-08-07T09:21:19.901Z,1.75
2023-08-07T09:23:48.042Z,1.73
2023-08-07T09:26:23.999Z,2.20
2023-08-07T09:28:54.074Z,2.47
2023-08-07T09:31:22.427Z,2.10
2023-08-07T09:33:51.143Z,3.25
2023-08-07T09:36:19.453Z,2.03
2023-08-07T09:38:51.874Z,2.10
2023-08-07T09:41:21.726Z,1.90
2023-08-07T09:43:49.882Z,2.28
2023-08-07T09:46:20.806Z,2.50
2023-08-07T09:48:49.277Z,2.50
2023-08-07T09:51:17.369Z,2.55
2023-08-07T09:53:45.430Z,3.20
2023-08-07T09:56:15.817Z,2.67
2023-08-07T09:58:50.324Z,3.38
2023-08-07T10:01:19.754Z,3.55
2023-08-07T10:03:49.182Z,3.67
2023-08-07T10:06:17.567Z,4.00
2023-08-07T10:08:46.875Z,4.18
2023-08-07T10:11:19.251Z,2.67
2023-08-07T10:13:49.729Z,2.40
2023-08-07T10:16:18.061Z,2.60
2023-08-07T10:18:46.291Z,3.00
2023-08-07T10:21:14.601Z,2.67
2023-08-07T10:23:42.858Z,2.92
2023-08-07T10:26:12.217Z,3.47
2023-08-07T10:28:42.724Z,3.10
2023-08-07T10:31:13.305Z,3.47
2023-08-07T10:33:42.854Z,5.07
2023-08-07T10:36:12.161Z,4.18
2023-08-07T10:38:40.281Z,4.22
2023-08-07T10:41:10.659Z,3.30
2023-08-07T10:43:40.082Z,4.20
2023-08-07T10:46:09.165Z,5.20
2023-08-07T10:48:47.685Z,4.15
2023-08-07T10:51:16.419Z,4.57
2023-08-07T10:53:46.528Z,4.45
2023-08-07T10:56:19.834Z,4.43
2023-08-07T10:58:53.109Z,4.13
2023-08-07T11:01:22.977Z,4.00
2023-08-07T11:03:53.668Z,4.78
2023-08-07T11:06:24.799Z,3.72
2023-08-07T11:08:53.615Z,3.55
2023-08-07T11:11:21.720Z,3.67
2023-08-07T11:13:49.867Z,3.45
2023-08-07T11:16:18.948Z,3.72
2023-08-07T11:18:47.074Z,4.43
2023-08-07T11:21:16.697Z,4.45
2023-08-07T11:23:45.535Z,3.95
2023-08-07T11:26:14.153Z,4.05
2023-08-07T11:28:42.215Z,4.22
2023-08-07T11:31:10.353Z,3.53
2023-08-07T11:33:38.614Z,3.80
2023-08-07T11:36:12.887Z,4.15
2023-08-07T11:38:44.098Z,4.15
2023-08-07T11:41:13.453Z,3.67
2023-08-07T11:43:42.556Z,4.07
2023-08-07T11:46:12.217Z,3.45
2023-08-07T11:48:41.574Z,3.63
2023-08-07T11:51:09.965Z,3.60
2023-08-07T11:53:39.251Z,4.72
2023-08-07T11:56:10.465Z,3.67
2023-08-07T11:58:39.657Z,4.03
2023-08-07T12:01:08.200Z,3.97
2023-08-07T12:03:39.920Z,3.42
2023-08-07T12:06:09.620Z,4.35
2023-08-07T12:08:39.739Z,4.03
2023-08-07T12:11:10.393Z,3.80
2023-08-07T12:13:40.198Z,3.28
2023-08-07T12:16:09.604Z,3.58
2023-08-07T12:18:38.750Z,3.25
2023-08-07T12:21:09.000Z,3.10
2023-08-07T12:23:37.812Z,2.88
2023-08-07T12:26:07.427Z,3.95
2023-08-07T12:28:37.490Z,3.40
2023-08-07T12:31:05.715Z,3.72
2023-08-07T12:33:33.856Z,3.67
2023-08-07T12:36:02.736Z,3.75
2023-08-07T12:38:31.237Z,3.80
2023-08-07T12:40:59.503Z,3.50
2023-08-07T12:43:27.930Z,4.20
2023-08-07T12:46:31.661Z,4.45
2023-08-07T12:48:45.509Z,4.05
2023-08-07T12:51:13.795Z,3.80
2023-08-07T12:53:41.911Z,3.53
2023-08-07T12:56:10.004Z,3.05
2023-08-07T12:58:39.524Z,3.60
2023-08-07T13:01:11.286Z,3.58
2023-08-07T13:03:39.607Z,3.95
2023-08-07T13:06:09.827Z,3.85
2023-08-07T13:08:38.005Z,3.40
2023-08-07T13:11:06.191Z,3.03
2023-08-07T13:13:34.276Z,3.40
2023-08-07T13:16:02.349Z,3.38
2023-08-07T13:18:31.769Z,3.28
2023-08-07T13:21:00.081Z,3.25
2023-08-07T13:23:28.153Z,2.90
2023-08-07T13:25:56.911Z,2.92
2023-08-07T13:28:25.088Z,3.00
2023-08-07T13:30:55.244Z,2.75
2023-08-07T13:33:23.573Z,3.05
2023-08-07T13:35:53.188Z,3.42
2023-08-07T13:38:21.309Z,3.22
2023-08-07T13:40:49.451Z,3.10
2023-08-07T13:43:17.596Z,3.65
2023-08-07T13:45:45.990Z,3.17
2023-08-07T13:48:14.127Z,2.97
2023-08-07T13:50:42.377Z,2.47
2023-08-07T13:53:15.535Z,3.63
2023-08-07T13:55:44.310Z,2.92
2023-08-07T13:58:12.801Z,3.50
2023-08-07T14:00:41.710Z,3.50
2023-08-07T14:03:11.792Z,3.70
2023-08-07T14:05:40.128Z,2.78
2023-08-07T14:08:08.535Z,2.53
2023-08-07T14:10:39.933Z,3.25
2023-08-07T14:13:08.145Z,3.10
2023-08-07T14:15:36.236Z,2.90
2023-08-07T14:18:04.471Z,2.63
2023-08-07T14:20:34.437Z,3.28
2023-08-07T14:23:19.923Z,3.30
2023-08-07T14:25:51.962Z,3.58
2023-08-07T14:28:20.279Z,2.35
2023-08-07T14:30:49.899Z,3.22
2023-08-07T14:33:18.559Z,2.53
2023-08-07T14:35:46.707Z,2.80
2023-08-07T14:38:15.513Z,2.95
2023-08-07T14:40:44.379Z,2.67
2023-08-07T14:43:13.812Z,2.65
2023-08-07T14:45:42.154Z,2.83
2023-08-07T14:48:10.209Z,3.42
2023-08-07T14:50:39.389Z,2.13
2023-08-07T14:53:07.465Z,2.80
2023-08-07T14:55:35.543Z,2.35
2023-08-07T14:58:03.685Z,2.28
2023-08-07T15:00:33.315Z,3.10
2023-08-07T15:03:01.544Z,2.78
2023-08-07T15:05:29.786Z,2.80
2023-08-07T15:07:57.925Z,3.05
2023-08-07T15:10:26.083Z,3.50
2023-08-07T15:12:54.260Z,2.75
2023-08-07T15:15:22.367Z,3.50
2023-08-07T15:17:51.931Z,3.50
2023-08-07T15:20:21.089Z,3.83
2023-08-07T15:22:50.067Z,3.58
2023-08-07T15:25:18.625Z,3.47
2023-08-07T15:27:46.864Z,2.85
2023-08-07T15:30:15.240Z,3.38
2023-08-07T15:32:43.519Z,3.75
2023-08-07T15:35:13.287Z,3.60
2023-08-07T15:37:41.477Z,4.05
2023-08-07T15:40:11.251Z,3.30
2023-08-07T15:42:39.832Z,3.92
2023-08-07T15:45:09.164Z,3.40
2023-08-07T15:47:37.284Z,3.70
2023-08-07T15:50:06.545Z,3.58
2023-08-07T15:52:36.096Z,4.35
2023-08-07T15:55:04.435Z,4.47
2023-08-07T15:57:32.796Z,5.07
2023-08-07T16:00:00.956Z,3.35
2023-08-07T16:02:29.232Z,3.40
2023-08-07T16:04:57.459Z,4.35
2023-08-07T16:07:25.747Z,5.10
2023-08-07T16:09:55.815Z,5.03
2023-08-07T16:12:23.952Z,5.28
2023-08-07T16:14:52.203Z,5.15
2023-08-07T16:17:20.403Z,3.05
2023-08-07T16:19:48.874Z,4.47
2023-08-07T16:22:17.015Z,3.58
2023-08-07T16:24:45.238Z,3.65
2023-08-07T16:27:14.895Z,4.28
2023-08-07T16:29:43.044Z,2.85
2023-08-07T16:32:11.230Z,3.40
2023-08-07T16:34:39.440Z,3.28
2023-08-07T16:37:07.713Z,4.07
2023-08-07T16:39:35.829Z,3.72
2023-08-07T16:42:04.240Z,3.83
2023-08-07T16:44:33.832Z,3.22
2023-08-07T16:47:01.950Z,3.03
2023-08-07T16:49:30.002Z,4.28
2023-08-07T16:51:59.755Z,4.10
2023-08-07T16:54:28.388Z,4.40
2023-08-07T16:56:57.294Z,2.97
2023-08-07T16:59:25.978Z,3.67
2023-08-07T17:01:56.098Z,3.15
2023-08-07T17:04:24.373Z,5.05
2023-08-07T17:06:52.578Z,3.30
2023-08-07T17:09:21.455Z,4.07
2023-08-07T17:11:49.501Z,3.17
2023-08-07T17:14:17.643Z,3.53
2023-08-07T17:16:45.931Z,3.25
2023-08-07T17:19:16.245Z,2.88
2023-08-07T17:21:44.565Z,2.65
2023-08-07T17:24:12.726Z,2.92
2023-08-07T17:26:40.779Z,2.05
2023-08-07T17:29:08.867Z,2.05
2023-08-07T17:31:36.943Z,2.45
2023-08-07T17:34:05.133Z,1.98
2023-08-07T17:36:34.624Z,2.13
2023-08-07T17:39:02.861Z,2.00
2023-08-07T17:41:31.248Z,1.80
2023-08-07T17:43:59.310Z,2.38
2023-08-07T17:46:27.606Z,2.05
2023-08-07T17:48:55.828Z,2.78
2023-08-07T17:51:24.471Z,1.65
2023-08-07T17:53:54.042Z,1.83
2023-08-07T17:56:22.990Z,2.10
2023-08-07T17:58:51.376Z,2.40
2023-08-07T18:01:19.595Z,1.95
2023-08-07T18:03:48.227Z,2.10
2023-08-07T18:06:16.388Z,2.00
2023-08-07T18:08:44.492Z,1.83
2023-08-07T18:11:14.000Z,1.92
2023-08-07T18:13:42.114Z,1.92
2023-08-07T18:16:10.955Z,2.17
2023-08-07T18:18:39.047Z,2.20
2023-08-07T18:21:07.138Z,2.30
2023-08-07T18:23:35.342Z,2.53
2023-08-07T18:26:03.726Z,2.30
2023-08-07T18:28:33.354Z,2.75
2023-08-07T18:31:01.855Z,2.28
2023-08-07T18:33:30.011Z,2.22
2023-08-07T18:36:00.962Z,1.95
2023-08-07T18:38:29.362Z,2.47
2023-08-07T18:40:57.423Z,2.10
2023-08-07T18:43:25.523Z,2.33
2023-08-07T18:45:54.982Z,2.33
2023-08-07T18:48:23.069Z,2.58
2023-08-07T18:50:51.304Z,2.65
2023-08-07T18:53:19.423Z,2.45
2023-08-07T18:55:47.694Z,2.22
2023-08-07T18:58:15.800Z,2.08
2023-08-07T19:00:43.903Z,2.22
2023-08-07T19:03:13.531Z,2.42
2023-08-07T19:05:42.167Z,2.53
2023-08-07T19:08:10.443Z,2.13
2023-08-07T19:10:38.571Z,2.30
2023-08-07T19:13:06.931Z,2.33
2023-08-07T19:15:35.028Z,2.88
2023-08-07T19:18:05.012Z,2.28
2023-08-07T19:20:34.563Z,3.13
2023-08-07T19:23:03.709Z,3.33
2023-08-07T19:25:31.908Z,3.40
2023-08-07T19:28:01.196Z,2.35
2023-08-07T19:30:32.021Z,2.40
2023-08-07T19:33:00.350Z,2.25
2023-08-07T19:35:28.950Z,2.80
2023-08-07T19:37:58.382Z,2.88
2023-08-07T19:40:27.244Z,2.50
2023-08-07T19:42:55.569Z,3.03
2023-08-07T19:45:24.152Z,2.45
2023-08-07T19:47:52.293Z,3.13
2023-08-07T19:50:20.889Z,2.85
2023-08-07T19:52:49.025Z,2.63
2023-08-07T19:55:18.879Z,2.10
2023-08-07T19:57:46.965Z,2.63
2023-08-07T20:00:16.020Z,2.95
2023-08-07T20:02:44.234Z,2.60
2023-08-07T20:05:12.307Z,1.92
2023-08-07T20:07:41.583Z,2.35
2023-08-07T20:10:12.255Z,2.40
2023-08-07T20:12:43.569Z,2.55
2023-08-07T20:15:14.050Z,2.53
2023-08-07T20:17:42.349Z,3.20
2023-08-07T20:20:14.408Z,2.90
2023-08-07T20:22:42.769Z,3.13
2023-08-07T20:25:11.571Z,2.72
2023-08-07T20:27:41.112Z,2.63
2023-08-07T20:30:12.573Z,2.85
2023-08-07T20:32:43.268Z,2.30
2023-08-07T20:35:14.720Z,2.58
2023-08-07T20:37:43.415Z,2.85
2023-08-07T20:40:13.891Z,2.58
2023-08-07T20:42:42.734Z,2.65
2023-08-07T20:45:13.206Z,2.95
2023-08-07T20:47:41.996Z,2.92
2023-08-07T20:50:11.636Z,2.38
2023-08-07T20:52:40.082Z,2.67
2023-08-07T20:55:10.032Z,2.83
2023-08-07T20:57:38.576Z,2.50
2023-08-07T21:00:10.801Z,3.08
2023-08-07T21:02:40.744Z,2.50
2023-08-07T21:05:09.632Z,2.72
2023-08-07T21:07:38.293Z,3.17
2023-08-07T21:10:08.513Z,2.30
2023-08-07T21:12:37.214Z,2.55
2023-08-07T21:15:06.438Z,2.63
2023-08-07T21:17:34.998Z,3.00
2023-08-07T21:20:05.271Z,3.20
2023-08-07T21:22:33.935Z,3.22
2023-08-07T21:25:02.571Z,3.53
2023-08-07T21:27:31.289Z,3.17
2023-08-07T21:29:59.707Z,3.38
2023-08-07T21:32:28.215Z,3.88
2023-08-07T21:34:56.943Z,2.78
2023-08-07T21:37:33.570Z,3.35
2023-08-07T21:40:02.697Z,3.42
2023-08-07T21:42:30.929Z,4.00
2023-08-07T21:44:59.405Z,3.75
2023-08-07T21:47:28.049Z,3.53
2023-08-07T21:49:56.605Z,2.90
2023-08-07T21:52:25.031Z,2.92
2023-08-07T21:54:55.077Z,2.67
2023-08-07T21:57:23.153Z,3.05
2023-08-07T21:59:51.286Z,2.63
2023-08-07T22:02:19.372Z,3.55
2023-08-07T22:04:47.502Z,2.92
2023-08-07T22:07:15.625Z,2.95
2023-08-07T22:09:43.709Z,2.80
2023-08-07T22:12:13.846Z,2.83
2023-08-07T22:14:42.035Z,2.90
2023-08-07T22:17:10.664Z,3.25
2023-08-07T22:19:39.669Z,3.13
2023-08-07T22:22:09.646Z,2.92
2023-08-07T22:24:37.714Z,3.05
2023-08-07T22:27:06.432Z,2.67
2023-08-07T22:29:35.878Z,3.10
2023-08-07T22:32:04.077Z,3.00
2023-08-07T22:34:32.893Z,2.63
2023-08-07T22:37:01.244Z,2.90
2023-08-07T22:39:29.332Z,2.50
2023-08-07T22:41:57.831Z,3.67
2023-08-07T22:44:26.288Z,3.65
2023-08-07T22:46:56.877Z,3.53
2023-08-07T22:49:24.960Z,3.58
2023-08-07T22:51:53.058Z,3.15
2023-08-07T22:54:21.172Z,3.35
2023-08-07T22:56:49.237Z,3.08
2023-08-07T22:59:17.422Z,3.05
2023-08-07T23:01:45.591Z,3.83
2023-08-07T23:04:15.122Z,3.42
2023-08-07T23:06:43.291Z,3.65
2023-08-07T23:09:11.426Z,3.75
2023-08-07T23:11:39.606Z,3.10
2023-08-07T23:14:18.025Z,2.95
2023-08-07T23:16:46.145Z,3.15
2023-08-07T23:19:14.459Z,3.13
2023-08-07T23:21:42.542Z,4.35
2023-08-07T23:24:10.634Z,3.72
2023-08-07T23:26:38.710Z,3.63
2023-08-07T23:29:06.839Z,3.85
2023-08-07T23:31:36.642Z,3.88
2023-08-07T23:34:05.615Z,4.18
2023-08-07T23:36:33.754Z,3.50
2023-08-07T23:39:01.807Z,3.42
2023-08-07T23:41:29.893Z,3.83
2023-08-07T23:43:57.956Z,3.38
2023-08-07T23:46:27.720Z,3.47
2023-08-07T23:48:57.405Z,3.47
2023-08-07T23:51:26.417Z,3.45
2023-08-07T23:53:54.980Z,3.53
2023-08-07T23:56:23.200Z,4.00
2023-08-07T23:58:51.575Z,3.42
